createdAt,value
2023-02-19T00:04:33.674Z,6.67
2023-02-19T00:34:37.169Z,7.47
2023-02-19T01:04:40.521Z,6.33
2023-02-19T01:34:43.612Z,6.47
2023-02-19T02:04:46.630Z,5.83
2023-02-19T02:34:50.075Z,6.07
2023-02-19T03:04:53.013Z,7.10
2023-02-19T03:34:56.196Z,5.90
2023-02-19T04:04:59.962Z,6.45
2023-02-19T04:35:03.464Z,9.60
2023-02-19T05:05:06.372Z,11.40
2023-02-19T05:35:09.828Z,10.40
2023-02-19T06:05:12.793Z,7.53
2023-02-19T06:35:16.116Z,10.07
2023-02-19T07:05:19.509Z,7.80
2023-02-19T07:35:22.903Z,8.73
2023-02-19T08:05:26.222Z,5.40
2023-02-19T08:35:29.759Z,7.07
2023-02-19T09:05:33.355Z,4.77
2023-02-19T09:35:36.716Z,4.60
2023-02-19T10:05:41.128Z,3.03
2023-02-19T10:35:44.000Z,2.80
2023-02-19T11:05:48.189Z,1.70
2023-02-19T11:35:51.020Z,2.20
2023-02-19T12:05:54.736Z,1.47
2023-02-19T12:35:57.608Z,1.30
2023-02-19T13:06:01.122Z,1.40
2023-02-19T13:36:03.963Z,2.30
2023-02-19T14:06:09.239Z,0.90
2023-02-19T14:36:12.317Z,1.60
2023-02-19T15:06:15.399Z,1.20
2023-02-19T15:36:19.370Z,0.93
2023-02-19T16:06:23.002Z,1.40
2023-02-19T16:36:25.941Z,1.33
2023-02-19T17:06:31.661Z,2.70
2023-02-19T17:36:34.623Z,2.70
2023-02-19T18:06:38.501Z,2.73
2023-02-19T18:36:41.678Z,2.58
2023-02-19T19:06:45.575Z,2.48
2023-02-19T19:36:49.099Z,2.53
2023-02-19T20:06:52.926Z,3.23
2023-02-19T20:36:56.284Z,2.53
2023-02-19T21:06:59.378Z,1.95
2023-02-19T21:37:02.956Z,2.03
2023-02-19T22:07:06.701Z,2.50
2023-02-19T22:37:10.243Z,1.90
2023-02-19T23:07:13.161Z,1.73
2023-02-19T23:37:16.606Z,2.15
